CheckWX is a tool to help pilots better visualize weather data.  It is not intended as a substitute for an official pre-flight weather briefing.

16:31:28 UTC

KWWR METAR
West Woodward Airport
Woodward, Oklahoma, USA
Current

16 mins ago

KWWR 201615Z AUTO 18023G33KT 10SM CLR 17/07 A2969 RMK AO2
Observed
Oct-20 @ 16:15 UTC
Wind
  • 180° at 23 KTS
  • Gusting to 33 KTS
Visibility
10 SM
Flight Rules
VFR
Cloud Levels
  • Clear skies
Temperature
17°C / 63°F
Dewpoint
C / 45°F
Humidity
52%
Altimeter
29.69" Hg
Pressure
1005.42 hPa
Previous

36 mins ago

KWWR 201555Z AUTO 17024G34KT 10SM CLR 17/07 A2969 RMK AO2
Observed
Oct-20 @ 15:55 UTC
Wind
  • 170° at 24 KTS
  • Gusting to 34 KTS
Visibility
10 SM
Flight Rules
VFR
Cloud Levels
  • Clear skies
Temperature
17°C / 63°F
Dewpoint
C / 45°F
Humidity
52%
Altimeter
29.69" Hg
Pressure
1005.42 hPa
Previous

56 mins ago

KWWR 201535Z AUTO 17020G29KT 10SM CLR 15/07 A2970 RMK AO2
Observed
Oct-20 @ 15:35 UTC
Wind
  • 170° at 20 KTS
  • Gusting to 29 KTS
Visibility
10 SM
Flight Rules
VFR
Cloud Levels
  • Clear skies
Temperature
15°C / 59°F
Dewpoint
C / 45°F
Humidity
59%
Altimeter
29.7" Hg
Pressure
1005.72 hPa